Time;durP1;ratioP1;P1;durP2;ratioP2;P2;SDS_P1;SDS_P2;PMS_P1;PMS_P2;Temp;Humidity;BMP_temperature;BMP_pressure;BME280_temperature;BME280_humidity;BME280_pressure;Samples;Min_cycle;Max_cycle;Signal;HPM_P1;HPM_P2
2023/12/27 00:00:48;;;;;;;0.10;0.10;;;;;;;;;;5025059;28;20053;-78
2023/12/27 00:03:16;;;;;;;0.10;0.10;;;;;;;;;;5028791;28;20442;-79
2023/12/27 00:05:43;;;;;;;0.00;0.00;;;;;;;;;;5024596;28;20075;-77
2023/12/27 00:08:11;;;;;;;0.00;0.00;;;;;;;;;;5028797;28;20461;-77
2023/12/27 00:10:39;;;;;;;0.65;0.55;;;;;;;;;;5027371;28;20042;-77
2023/12/27 00:13:06;;;;;;;0.10;0.10;;;;;;;;;;5009329;28;20322;-78
2023/12/27 00:15:34;;;;;;;0.00;0.00;;;;;;;;;;5032804;28;20095;-78
2023/12/27 00:18:02;;;;;;;0.00;0.00;;;;;;;;;;5034062;28;20064;-77
2023/12/27 00:20:31;;;;;;;0.00;0.00;;;;;;;;;;5027382;28;20116;-77
2023/12/27 00:22:59;;;;;;;0.10;0.10;;;;;;;;;;5019444;28;20526;-77
2023/12/27 00:25:27;;;;;;;0.10;0.10;;;;;;;;;;5026629;28;20411;-79
2023/12/27 00:27:54;;;;;;;0.10;0.10;;;;;;;;;;5028961;28;20049;-77
2023/12/27 00:30:22;;;;;;;0.08;0.08;;;;;;;;;;5011849;28;20414;-77
2023/12/27 00:32:50;;;;;;;0.10;0.10;;;;;;;;;;5010579;28;20369;-77
2023/12/27 00:35:18;;;;;;;0.00;0.00;;;;;;;;;;5025122;28;20131;-79
2023/12/27 00:37:45;;;;;;;0.10;0.10;;;;;;;;;;5010400;28;20592;-77
2023/12/27 00:40:13;;;;;;;0.03;0.03;;;;;;;;;;5026404;28;20151;-77
2023/12/27 00:42:41;;;;;;;0.10;0.10;;;;;;;;;;5029342;28;20041;-77
2023/12/27 00:45:10;;;;;;;0.10;0.10;;;;;;;;;;5029442;28;20045;-77
2023/12/27 00:47:37;;;;;;;0.10;0.10;;;;;;;;;;5027183;28;20064;-78
2023/12/27 00:50:05;;;;;;;0.10;0.10;;;;;;;;;;5007756;28;20049;-77
2023/12/27 00:52:33;;;;;;;0.10;0.10;;;;;;;;;;5021897;28;20132;-78
2023/12/27 00:55:00;;;;;;;0.00;0.00;;;;;;;;;;5023932;28;20132;-78
2023/12/27 00:57:28;;;;;;;0.10;0.10;;;;;;;;;;5025800;28;20129;-78
2023/12/27 00:59:55;;;;;;;0.10;0.10;;;;;;;;;;5020709;28;20108;-78
2023/12/27 01:02:23;;;;;;;0.20;0.20;;;;;;;;;;5026108;28;20049;-78
2023/12/27 01:04:53;;;;;;;0.03;0.03;;;;;;;;;;5030443;28;20526;-79
2023/12/27 01:07:21;;;;;;;0.10;0.10;;;;;;;;;;5021823;28;20402;-77
2023/12/27 01:09:49;;;;;;;0.20;0.20;;;;;;;;;;5024182;28;20418;-79
2023/12/27 01:12:17;;;;;;;0.10;0.10;;;;;;;;;;5012260;28;20072;-77
2023/12/27 01:14:44;;;;;;;0.00;0.00;;;;;;;;;;5024480;28;20491;-77
2023/12/27 01:17:12;;;;;;;0.05;0.05;;;;;;;;;;5007142;28;20038;-78
2023/12/27 01:19:39;;;;;;;0.10;0.10;;;;;;;;;;4997880;28;20059;-77
2023/12/27 01:22:07;;;;;;;0.10;0.10;;;;;;;;;;5007412;28;20037;-79
2023/12/27 01:24:35;;;;;;;0.00;0.00;;;;;;;;;;5007327;28;20049;-77
2023/12/27 01:27:02;;;;;;;0.10;0.10;;;;;;;;;;5011760;23;20285;-78
2023/12/27 01:29:31;;;;;;;0.10;0.10;;;;;;;;;;4998818;28;20491;-77
2023/12/27 01:31:58;;;;;;;0.10;0.10;;;;;;;;;;5012164;28;20042;-77
2023/12/27 01:34:27;;;;;;;0.10;0.10;;;;;;;;;;4992941;28;20038;-77
2023/12/27 01:36:55;;;;;;;0.20;0.20;;;;;;;;;;4985232;28;20053;-77
2023/12/27 01:39:23;;;;;;;0.00;0.00;;;;;;;;;;5003316;28;20438;-77
2023/12/27 01:41:51;;;;;;;1.38;0.32;;;;;;;;;;5004733;28;20081;-77
2023/12/27 01:44:19;;;;;;;0.10;0.10;;;;;;;;;;4984745;28;20042;-77
2023/12/27 01:46:46;;;;;;;0.10;0.10;;;;;;;;;;5003725;28;20045;-77
2023/12/27 01:49:14;;;;;;;0.20;0.20;;;;;;;;;;5003548;28;20408;-77
2023/12/27 01:51:42;;;;;;;0.10;0.10;;;;;;;;;;5004152;28;20077;-77
2023/12/27 01:54:11;;;;;;;0.03;0.03;;;;;;;;;;4987806;28;20041;-77
2023/12/27 01:56:39;;;;;;;0.08;0.08;;;;;;;;;;5001017;28;21462;-77
2023/12/27 01:59:06;;;;;;;0.20;0.20;;;;;;;;;;5001502;28;20056;-77
2023/12/27 02:01:34;;;;;;;0.10;0.10;;;;;;;;;;4986461;28;20054;-77
2023/12/27 02:04:02;;;;;;;0.08;0.08;;;;;;;;;;4983400;28;20093;-77
2023/12/27 02:06:30;;;;;;;0.20;0.20;;;;;;;;;;5004252;28;20045;-77
2023/12/27 02:08:57;;;;;;;0.50;0.50;;;;;;;;;;5001221;28;20163;-77
2023/12/27 02:11:25;;;;;;;0.40;0.40;;;;;;;;;;5002928;28;20054;-77
2023/12/27 02:13:53;;;;;;;0.10;0.10;;;;;;;;;;4982871;28;20420;-77
2023/12/27 02:16:21;;;;;;;0.55;0.50;;;;;;;;;;5006831;28;20414;-77
2023/12/27 02:18:49;;;;;;;1.80;1.70;;;;;;;;;;4991569;28;20120;-77
2023/12/27 02:21:17;;;;;;;0.00;0.00;;;;;;;;;;5006479;28;21088;-77
2023/12/27 02:23:46;;;;;;;0.00;0.00;;;;;;;;;;5007022;28;20049;-77
2023/12/27 02:26:15;;;;;;;0.30;0.30;;;;;;;;;;4990014;28;20415;-77
2023/12/27 02:28:42;;;;;;;0.10;0.10;;;;;;;;;;5007000;28;20057;-77
2023/12/27 02:31:11;;;;;;;0.10;0.10;;;;;;;;;;4985430;28;20058;-77
2023/12/27 02:33:43;;;;;;;0.10;0.10;;;;;;;;;;5007700;28;20050;-77
2023/12/27 02:36:11;;;;;;;0.10;0.10;;;;;;;;;;4987330;28;20124;-77
2023/12/27 02:38:39;;;;;;;0.10;0.10;;;;;;;;;;5007253;28;20141;-77
2023/12/27 02:41:06;;;;;;;0.00;0.00;;;;;;;;;;4987642;28;20074;-77
2023/12/27 02:43:34;;;;;;;0.10;0.10;;;;;;;;;;5000558;28;20476;-77
2023/12/27 02:46:02;;;;;;;0.28;0.28;;;;;;;;;;4983119;28;20053;-77
2023/12/27 02:48:29;;;;;;;0.20;0.20;;;;;;;;;;4977630;28;20096;-77
2023/12/27 02:50:57;;;;;;;1.75;0.73;;;;;;;;;;4992721;28;20045;-77
2023/12/27 02:53:25;;;;;;;0.20;0.20;;;;;;;;;;5004000;28;20046;-77
2023/12/27 02:55:53;;;;;;;0.30;0.30;;;;;;;;;;4985803;28;20046;-77
2023/12/27 02:58:20;;;;;;;0.10;0.10;;;;;;;;;;5000746;28;20284;-77
2023/12/27 03:00:48;;;;;;;0.10;0.10;;;;;;;;;;4988146;28;20575;-77
2023/12/27 03:03:17;;;;;;;0.10;0.10;;;;;;;;;;5006464;28;20053;-77
2023/12/27 03:05:45;;;;;;;3.25;0.65;;;;;;;;;;4987112;28;20042;-77
2023/12/27 03:08:12;;;;;;;0.10;0.10;;;;;;;;;;4987499;28;20081;-77
2023/12/27 03:10:40;;;;;;;0.03;0.03;;;;;;;;;;5002846;28;20054;-77
2023/12/27 03:13:07;;;;;;;0.00;0.00;;;;;;;;;;4984221;28;20191;-77
2023/12/27 03:15:35;;;;;;;0.20;0.20;;;;;;;;;;5004640;28;20552;-77
2023/12/27 03:18:03;;;;;;;0.15;0.15;;;;;;;;;;5002115;28;20264;-77
2023/12/27 03:20:31;;;;;;;0.10;0.10;;;;;;;;;;5005049;28;20463;-77
2023/12/27 03:22:58;;;;;;;0.30;0.30;;;;;;;;;;4990606;28;20447;-77
2023/12/27 03:25:26;;;;;;;0.10;0.10;;;;;;;;;;5001375;28;20100;-77
2023/12/27 03:27:53;;;;;;;0.17;0.17;;;;;;;;;;5003172;28;20052;-77
2023/12/27 03:30:22;;;;;;;0.10;0.10;;;;;;;;;;5004404;28;20385;-77
2023/12/27 03:32:49;;;;;;;0.00;0.00;;;;;;;;;;5004216;28;20042;-77
2023/12/27 03:35:17;;;;;;;0.80;0.80;;;;;;;;;;4998601;28;20142;-77
2023/12/27 03:37:45;;;;;;;0.85;0.85;;;;;;;;;;5002996;28;20143;-77
2023/12/27 03:40:12;;;;;;;0.10;0.10;;;;;;;;;;5002766;28;20159;-77
2023/12/27 03:42:40;;;;;;;0.20;0.20;;;;;;;;;;4981776;28;20619;-77
2023/12/27 03:45:08;;;;;;;0.10;0.10;;;;;;;;;;4987032;28;20054;-77
2023/12/27 03:47:36;;;;;;;0.00;0.00;;;;;;;;;;5005957;28;20045;-77
2023/12/27 03:50:04;;;;;;;0.00;0.00;;;;;;;;;;5006971;28;20045;-77
2023/12/27 03:52:32;;;;;;;0.35;0.35;;;;;;;;;;4989335;28;20049;-77
2023/12/27 03:54:59;;;;;;;0.00;0.00;;;;;;;;;;5005185;28;20409;-77
2023/12/27 03:57:27;;;;;;;0.43;0.43;;;;;;;;;;5004840;28;20050;-77
2023/12/27 03:59:55;;;;;;;0.10;0.10;;;;;;;;;;5004569;28;20538;-77
2023/12/27 04:02:23;;;;;;;0.32;0.32;;;;;;;;;;5004422;28;20415;-77
2023/12/27 04:04:51;;;;;;;0.20;0.20;;;;;;;;;;4982821;28;20463;-77
2023/12/27 04:07:18;;;;;;;0.10;0.10;;;;;;;;;;4984285;28;20422;-77
2023/12/27 04:09:46;;;;;;;0.10;0.10;;;;;;;;;;5001176;28;20562;-77
2023/12/27 04:12:14;;;;;;;0.20;0.20;;;;;;;;;;5002082;28;20053;-77
2023/12/27 04:14:42;;;;;;;0.00;0.00;;;;;;;;;;4984872;28;20042;-77
2023/12/27 04:17:10;;;;;;;0.10;0.10;;;;;;;;;;5001504;28;20057;-77
2023/12/27 04:19:38;;;;;;;0.00;0.00;;;;;;;;;;5002587;28;20054;-77
2023/12/27 04:22:06;;;;;;;0.10;0.10;;;;;;;;;;4999430;28;20100;-77
2023/12/27 04:24:33;;;;;;;0.10;0.10;;;;;;;;;;5002087;28;20065;-77
2023/12/27 04:27:02;;;;;;;0.10;0.10;;;;;;;;;;4995697;28;20045;-77
2023/12/27 04:29:30;;;;;;;0.00;0.00;;;;;;;;;;4981168;28;20038;-77
2023/12/27 04:31:57;;;;;;;0.10;0.10;;;;;;;;;;5001770;28;20044;-77
2023/12/27 04:34:25;;;;;;;0.10;0.10;;;;;;;;;;4996722;28;20105;-77
2023/12/27 04:36:52;;;;;;;0.10;0.10;;;;;;;;;;5001109;28;20456;-77
2023/12/27 04:39:20;;;;;;;0.05;0.05;;;;;;;;;;5003345;28;20041;-77
2023/12/27 04:41:48;;;;;;;0.10;0.10;;;;;;;;;;4987129;28;20052;-77
2023/12/27 04:44:16;;;;;;;0.10;0.10;;;;;;;;;;5001519;28;20050;-77
2023/12/27 04:46:44;;;;;;;0.10;0.10;;;;;;;;;;5003745;28;20203;-77
2023/12/27 04:49:13;;;;;;;0.90;0.90;;;;;;;;;;4987363;28;20049;-77
2023/12/27 04:51:41;;;;;;;0.05;0.05;;;;;;;;;;4986960;28;20128;-77
2023/12/27 04:54:08;;;;;;;0.00;0.00;;;;;;;;;;5004607;28;20046;-77
2023/12/27 04:56:36;;;;;;;0.10;0.10;;;;;;;;;;4983647;28;20518;-77
2023/12/27 04:59:04;;;;;;;0.10;0.10;;;;;;;;;;4987087;28;20049;-77
2023/12/27 05:01:32;;;;;;;0.10;0.10;;;;;;;;;;5004518;28;20054;-77
2023/12/27 05:03:59;;;;;;;0.10;0.10;;;;;;;;;;5007956;28;20054;-77
2023/12/27 05:06:27;;;;;;;0.10;0.10;;;;;;;;;;4982243;28;20073;-77
2023/12/27 05:08:55;;;;;;;0.20;0.20;;;;;;;;;;4991242;28;20124;-76
2023/12/27 05:11:23;;;;;;;0.20;0.20;;;;;;;;;;5006603;28;20046;-76
2023/12/27 05:13:51;;;;;;;0.32;0.32;;;;;;;;;;5008059;28;20042;-77
2023/12/27 05:16:18;;;;;;;0.05;0.05;;;;;;;;;;5003089;28;20046;-76
2023/12/27 05:18:46;;;;;;;0.00;0.00;;;;;;;;;;4986330;28;20144;-76
2023/12/27 05:21:14;;;;;;;0.00;0.00;;;;;;;;;;5002722;28;20050;-77
2023/12/27 05:23:42;;;;;;;0.00;0.00;;;;;;;;;;4995397;28;20498;-77
2023/12/27 05:26:09;;;;;;;0.00;0.00;;;;;;;;;;4999549;28;20053;-77
2023/12/27 05:28:37;;;;;;;0.13;0.13;;;;;;;;;;5003576;28;20049;-77
2023/12/27 05:31:04;;;;;;;0.20;0.20;;;;;;;;;;5005610;28;20072;-77
2023/12/27 05:33:32;;;;;;;0.10;0.10;;;;;;;;;;5002220;28;20407;-77
2023/12/27 05:36:00;;;;;;;0.10;0.10;;;;;;;;;;4986646;28;20037;-77
2023/12/27 05:38:27;;;;;;;1.30;1.17;;;;;;;;;;5003538;28;20038;-77
2023/12/27 05:40:55;;;;;;;0.10;0.10;;;;;;;;;;4999780;28;20064;-77
2023/12/27 05:43:23;;;;;;;0.13;0.10;;;;;;;;;;5001736;28;20103;-77
2023/12/27 05:45:51;;;;;;;0.30;0.30;;;;;;;;;;5002154;28;20050;-77
2023/12/27 05:48:19;;;;;;;0.17;0.17;;;;;;;;;;5001907;28;20217;-77
2023/12/27 05:50:46;;;;;;;0.22;0.22;;;;;;;;;;5004350;28;20503;-77
2023/12/27 05:53:14;;;;;;;0.20;0.20;;;;;;;;;;5005451;28;20073;-76
2023/12/27 05:55:41;;;;;;;0.00;0.00;;;;;;;;;;5000212;28;20046;-77
2023/12/27 05:58:09;;;;;;;0.10;0.10;;;;;;;;;;5000985;28;20132;-76
2023/12/27 06:00:37;;;;;;;0.20;0.20;;;;;;;;;;5002330;28;20068;-76
2023/12/27 06:03:05;;;;;;;0.10;0.10;;;;;;;;;;4998255;28;20054;-76
2023/12/27 06:05:33;;;;;;;0.10;0.10;;;;;;;;;;5007503;28;20476;-77
2023/12/27 06:08:01;;;;;;;0.20;0.20;;;;;;;;;;5008984;28;20093;-77
2023/12/27 06:10:28;;;;;;;0.10;0.10;;;;;;;;;;5000812;28;20053;-77
2023/12/27 06:12:56;;;;;;;0.10;0.10;;;;;;;;;;4994466;28;20038;-77
2023/12/27 06:15:24;;;;;;;0.10;0.10;;;;;;;;;;5005062;28;20069;-77
2023/12/27 06:17:52;;;;;;;0.10;0.10;;;;;;;;;;4981556;28;20046;-77
2023/12/27 06:20:20;;;;;;;0.10;0.10;;;;;;;;;;5001467;28;20049;-77
2023/12/27 06:22:47;;;;;;;0.20;0.20;;;;;;;;;;5001684;28;20511;-77
2023/12/27 06:25:15;;;;;;;0.10;0.10;;;;;;;;;;4994735;28;20049;-77
2023/12/27 06:27:43;;;;;;;0.28;0.28;;;;;;;;;;5002617;28;20501;-77
2023/12/27 06:30:10;;;;;;;0.10;0.10;;;;;;;;;;4993421;28;20042;-77
2023/12/27 06:32:38;;;;;;;0.20;0.20;;;;;;;;;;4994801;28;20423;-77
2023/12/27 06:35:06;;;;;;;0.73;0.43;;;;;;;;;;4997891;28;20042;-77
2023/12/27 06:37:34;;;;;;;0.30;0.30;;;;;;;;;;4998302;28;20425;-77
2023/12/27 06:40:06;;;;;;;0.85;0.85;;;;;;;;;;4983169;28;20045;-77
2023/12/27 06:42:33;;;;;;;0.10;0.10;;;;;;;;;;5003069;28;20129;-77
2023/12/27 06:45:01;;;;;;;0.10;0.10;;;;;;;;;;5007884;28;20396;-77
2023/12/27 06:47:30;;;;;;;0.15;0.15;;;;;;;;;;4988415;28;20084;-77
2023/12/27 06:49:58;;;;;;;0.20;0.20;;;;;;;;;;4988035;28;20038;-77
2023/12/27 06:52:26;;;;;;;0.85;0.63;;;;;;;;;;5011458;28;20037;-77
2023/12/27 06:54:53;;;;;;;0.50;0.30;;;;;;;;;;5004458;28;20056;-77
2023/12/27 06:57:20;;;;;;;0.20;0.20;;;;;;;;;;5010920;28;20073;-76
2023/12/27 06:59:50;;;;;;;0.17;0.17;;;;;;;;;;4994696;28;20069;-77
2023/12/27 07:02:19;;;;;;;0.10;0.10;;;;;;;;;;4981853;28;20049;-77
2023/12/27 07:04:46;;;;;;;0.20;0.20;;;;;;;;;;5007749;28;20112;-77
2023/12/27 07:07:14;;;;;;;0.20;0.20;;;;;;;;;;4993650;28;20053;-77
2023/12/27 07:09:42;;;;;;;0.47;0.47;;;;;;;;;;4994670;28;20077;-77
2023/12/27 07:12:12;;;;;;;3.75;3.45;;;;;;;;;;5007599;28;20045;-77
2023/12/27 07:14:39;;;;;;;0.25;0.25;;;;;;;;;;5003782;28;20317;-77
2023/12/27 07:17:07;;;;;;;0.57;0.57;;;;;;;;;;4995651;28;20065;-77
2023/12/27 07:19:35;;;;;;;1.00;1.00;;;;;;;;;;5004420;28;20146;-77
2023/12/27 07:22:02;;;;;;;0.43;0.43;;;;;;;;;;4996874;28;20050;-77
2023/12/27 07:24:30;;;;;;;1.20;1.15;;;;;;;;;;5001680;28;20058;-77
2023/12/27 07:26:58;;;;;;;0.50;0.50;;;;;;;;;;5026700;22;20062;-69
2023/12/27 07:29:25;;;;;;;0.63;0.52;;;;;;;;;;5026127;28;20049;-69
2023/12/27 07:31:53;;;;;;;1.48;0.93;;;;;;;;;;5024550;28;20080;-70
2023/12/27 07:34:21;;;;;;;0.38;0.38;;;;;;;;;;5017552;28;20591;-70
2023/12/27 07:36:49;;;;;;;0.63;0.63;;;;;;;;;;4999581;28;20487;-70
2023/12/27 07:39:17;;;;;;;0.93;0.93;;;;;;;;;;5009151;28;20049;-70
2023/12/27 07:41:44;;;;;;;3.30;2.63;;;;;;;;;;4991439;28;20046;-69
2023/12/27 07:44:12;;;;;;;0.50;0.50;;;;;;;;;;5008514;28;20563;-70
2023/12/27 07:46:40;;;;;;;0.30;0.30;;;;;;;;;;4998021;28;20058;-69
2023/12/27 07:49:08;;;;;;;1.58;1.48;;;;;;;;;;5003481;28;20052;-70
2023/12/27 07:51:35;;;;;;;0.10;0.10;;;;;;;;;;5009060;28;20121;-69
2023/12/27 07:54:03;;;;;;;0.25;0.25;;;;;;;;;;5008669;28;20153;-69
2023/12/27 07:56:34;;;;;;;0.75;0.75;;;;;;;;;;5007475;28;20046;-69
2023/12/27 07:59:03;;;;;;;0.73;0.50;;;;;;;;;;5006773;28;20060;-69
2023/12/27 08:01:31;;;;;;;0.32;0.32;;;;;;;;;;5006787;28;20049;-70
2023/12/27 08:03:59;;;;;;;1.10;1.10;;;;;;;;;;4984222;28;20046;-70
2023/12/27 08:06:27;;;;;;;0.75;0.75;;;;;;;;;;5007181;28;20542;-69
2023/12/27 08:08:55;;;;;;;0.35;0.35;;;;;;;;;;5003520;28;20050;-70
2023/12/27 08:11:23;;;;;;;0.57;0.57;;;;;;;;;;5006345;28;20041;-70
2023/12/27 08:13:51;;;;;;;4.47;3.13;;;;;;;;;;5008125;28;20049;-70
2023/12/27 08:16:19;;;;;;;1.55;1.45;;;;;;;;;;5006186;28;20053;-70
2023/12/27 08:18:47;;;;;;;0.40;0.40;;;;;;;;;;5000274;28;20061;-67
2023/12/27 08:21:14;;;;;;;0.10;0.10;;;;;;;;;;5006144;28;20042;-67
2023/12/27 08:23:42;;;;;;;0.60;0.60;;;;;;;;;;5008336;28;20120;-67
2023/12/27 08:26:10;;;;;;;0.20;0.20;;;;;;;;;;5007949;28;20554;-67
2023/12/27 08:28:38;;;;;;;0.20;0.20;;;;;;;;;;5007868;28;20045;-67
2023/12/27 08:31:07;;;;;;;0.90;0.90;;;;;;;;;;5009038;28;20070;-67
2023/12/27 08:33:35;;;;;;;1.17;1.17;;;;;;;;;;5006365;28;20042;-67
2023/12/27 08:36:04;;;;;;;0.60;0.60;;;;;;;;;;5003516;28;20045;-67
2023/12/27 08:38:32;;;;;;;1.02;0.52;;;;;;;;;;5001710;28;20072;-67
2023/12/27 08:41:02;;;;;;;0.22;0.22;;;;;;;;;;5001213;28;20088;-70
2023/12/27 08:43:30;;;;;;;1.35;0.68;;;;;;;;;;5000584;28;20404;-70
2023/12/27 08:45:58;;;;;;;0.70;0.28;;;;;;;;;;5003841;28;20427;-69
2023/12/27 08:48:26;;;;;;;0.73;0.73;;;;;;;;;;5004525;28;20060;-70
2023/12/27 08:50:54;;;;;;;0.38;0.38;;;;;;;;;;5007346;28;20052;-69
2023/12/27 08:53:22;;;;;;;0.40;0.40;;;;;;;;;;5005949;28;20050;-69
2023/12/27 08:55:49;;;;;;;0.45;0.38;;;;;;;;;;5003706;28;20875;-69
2023/12/27 08:58:17;;;;;;;0.55;0.55;;;;;;;;;;4998474;28;20054;-69
2023/12/27 09:00:45;;;;;;;0.40;0.40;;;;;;;;;;5003155;28;20125;-69
2023/12/27 09:03:13;;;;;;;0.28;0.28;;;;;;;;;;5000444;28;20163;-70
2023/12/27 09:05:40;;;;;;;1.48;1.38;;;;;;;;;;4999270;28;20053;-70
2023/12/27 09:08:08;;;;;;;3.60;0.55;;;;;;;;;;5003190;28;20405;-70
2023/12/27 09:10:36;;;;;;;0.20;0.20;;;;;;;;;;4998094;28;20042;-69
2023/12/27 09:13:03;;;;;;;0.10;0.10;;;;;;;;;;5003129;28;20367;-69
2023/12/27 09:15:32;;;;;;;0.85;0.40;;;;;;;;;;5006391;28;20543;-70
2023/12/27 09:18:00;;;;;;;0.35;0.35;;;;;;;;;;5006362;28;20046;-69
2023/12/27 09:20:28;;;;;;;0.57;0.57;;;;;;;;;;5001462;28;20082;-70
2023/12/27 09:22:55;;;;;;;0.20;0.20;;;;;;;;;;5003588;28;20050;-69
2023/12/27 09:25:23;;;;;;;0.50;0.50;;;;;;;;;;5007247;28;20495;-70
2023/12/27 09:27:51;;;;;;;0.65;0.30;;;;;;;;;;5006232;28;20141;-70
2023/12/27 09:30:18;;;;;;;0.10;0.10;;;;;;;;;;5005856;28;20089;-67
2023/12/27 09:32:46;;;;;;;0.20;0.20;;;;;;;;;;5005333;28;20423;-70
2023/12/27 09:35:14;;;;;;;0.13;0.13;;;;;;;;;;5000478;28;20096;-69
2023/12/27 09:37:42;;;;;;;0.30;0.30;;;;;;;;;;5005107;28;20122;-68
2023/12/27 09:40:11;;;;;;;0.47;0.47;;;;;;;;;;5006968;28;20510;-68
2023/12/27 09:42:39;;;;;;;0.20;0.20;;;;;;;;;;5004663;28;20716;-69
2023/12/27 09:45:11;;;;;;;0.10;0.10;;;;;;;;;;5006889;28;20053;-68
2023/12/27 09:47:40;;;;;;;3.22;2.95;;;;;;;;;;5007099;28;20108;-70
2023/12/27 09:50:08;;;;;;;0.20;0.20;;;;;;;;;;5005349;28;20053;-69
2023/12/27 09:52:39;;;;;;;0.20;0.20;;;;;;;;;;4989161;28;20284;-69
2023/12/27 09:55:07;;;;;;;;;;;;;;;;;;5005561;28;20409;-69
2023/12/27 09:57:35;;;;;;;0.25;0.20;;;;;;;;;;5006600;28;20414;-69
2023/12/27 10:00:05;;;;;;;0.10;0.10;;;;;;;;;;4988192;28;20054;-70
2023/12/27 10:02:35;;;;;;;0.28;0.28;;;;;;;;;;5004481;28;20067;-68
2023/12/27 10:05:06;;;;;;;0.50;0.50;;;;;;;;;;4999336;28;20073;-69
2023/12/27 10:07:38;;;;;;;;;;;;;;;;;;4989533;28;20050;-68
2023/12/27 10:10:08;;;;;;;0.10;0.10;;;;;;;;;;5001491;28;20138;-69
2023/12/27 10:12:51;;;;;;;0.20;0.20;;;;;;;;;;4989507;28;20058;-69
2023/12/27 10:15:19;;;;;;;0.22;0.22;;;;;;;;;;5003881;28;20555;-69
2023/12/27 10:17:47;;;;;;;0.10;0.10;;;;;;;;;;5004626;28;20053;-69
2023/12/27 10:20:32;;;;;;;0.20;0.20;;;;;;;;;;5006913;28;20080;-69
2023/12/27 10:23:01;;;;;;;0.30;0.30;;;;;;;;;;5007081;28;20064;-69
2023/12/27 10:25:29;;;;;;;1.13;1.08;;;;;;;;;;5001261;28;20104;-69
2023/12/27 10:27:57;;;;;;;0.30;0.30;;;;;;;;;;5005841;28;20377;-69
2023/12/27 10:30:25;;;;;;;0.22;0.22;;;;;;;;;;5007470;28;20052;-69
2023/12/27 10:32:59;;;;;;;0.45;0.45;;;;;;;;;;5007828;28;20116;-69
2023/12/27 10:35:29;;;;;;;0.05;0.05;;;;;;;;;;5008131;28;20125;-69
2023/12/27 10:38:06;;;;;;;0.10;0.10;;;;;;;;;;5008933;28;20064;-69
2023/12/27 10:40:35;;;;;;;0.15;0.15;;;;;;;;;;5005293;28;20686;-69
2023/12/27 10:43:04;;;;;;;0.10;0.10;;;;;;;;;;4991664;28;20460;-69
2023/12/27 10:45:32;;;;;;;1.38;0.90;;;;;;;;;;5009682;28;20041;-69
2023/12/27 10:48:00;;;;;;;0.35;0.20;;;;;;;;;;4986245;28;20050;-69
2023/12/27 10:50:30;;;;;;;0.35;0.35;;;;;;;;;;5005860;28;20149;-69
2023/12/27 10:53:06;;;;;;;0.10;0.10;;;;;;;;;;5002689;28;20084;-69
2023/12/27 10:55:35;;;;;;;0.10;0.10;;;;;;;;;;5000716;28;20069;-69
2023/12/27 10:58:05;;;;;;;0.10;0.10;;;;;;;;;;5000370;28;20050;-69
2023/12/27 11:00:33;;;;;;;0.10;0.10;;;;;;;;;;5006534;28;20089;-69
2023/12/27 11:03:03;;;;;;;0.28;0.28;;;;;;;;;;5004768;28;20053;-69
2023/12/27 11:05:30;;;;;;;0.30;0.30;;;;;;;;;;5004704;28;20563;-69
2023/12/27 11:07:59;;;;;;;0.10;0.10;;;;;;;;;;5009421;28;20049;-69
2023/12/27 11:10:29;;;;;;;0.10;0.10;;;;;;;;;;4998142;28;20046;-69
2023/12/27 11:12:59;;;;;;;0.50;0.50;;;;;;;;;;5009693;28;20500;-69
2023/12/27 11:15:29;;;;;;;0.38;0.38;;;;;;;;;;4998127;28;20052;-69
2023/12/27 11:18:00;;;;;;;0.90;0.68;;;;;;;;;;5006917;28;20050;-69
2023/12/27 11:20:30;;;;;;;0.10;0.10;;;;;;;;;;5006573;28;20050;-69
2023/12/27 11:22:57;;;;;;;0.45;0.45;;;;;;;;;;5000292;28;20058;-69
2023/12/27 11:25:25;;;;;;;0.10;0.10;;;;;;;;;;5007573;28;20134;-70
2023/12/27 11:27:53;;;;;;;0.20;0.20;;;;;;;;;;5009243;28;20065;-70
2023/12/27 11:30:23;;;;;;;0.40;0.40;;;;;;;;;;5005785;28;20049;-69
2023/12/27 11:32:51;;;;;;;0.10;0.10;;;;;;;;;;5006409;28;20052;-70
2023/12/27 11:35:28;;;;;;;0.20;0.20;;;;;;;;;;5008124;28;20046;-69
2023/12/27 11:38:22;;;;;;;0.13;0.13;;;;;;;;;;4998760;28;20124;-69
2023/12/27 11:40:56;;;;;;;0.30;0.30;;;;;;;;;;5004025;28;20062;-68
2023/12/27 11:43:25;;;;;;;0.10;0.10;;;;;;;;;;5007083;28;20427;-70
2023/12/27 11:46:10;;;;;;;1.77;0.90;;;;;;;;;;5007764;28;20488;-68
2023/12/27 11:48:38;;;;;;;0.10;0.10;;;;;;;;;;5005613;28;20428;-69
2023/12/27 11:51:26;;;;;;;0.10;0.10;;;;;;;;;;4988615;28;20045;-69
2023/12/27 11:53:54;;;;;;;0.30;0.30;;;;;;;;;;5008365;28;20126;-68
2023/12/27 11:56:22;;;;;;;0.17;0.17;;;;;;;;;;5003027;28;20065;-69
2023/12/27 11:58:50;;;;;;;0.10;0.10;;;;;;;;;;5004859;28;20046;-69
2023/12/27 12:01:37;;;;;;;0.20;0.20;;;;;;;;;;4986193;28;20046;-69
2023/12/27 12:04:10;;;;;;;0.10;0.10;;;;;;;;;;5002337;28;20225;-69
2023/12/27 12:06:56;;;;;;;0.52;0.52;;;;;;;;;;5007873;28;20054;-69
2023/12/27 12:09:31;;;;;;;0.10;0.10;;;;;;;;;;4982472;28;20077;-74
2023/12/27 12:12:08;;;;;;;0.20;0.20;;;;;;;;;;4999710;28;20049;-74
2023/12/27 12:14:36;;;;;;;0.20;0.20;;;;;;;;;;4999471;28;20061;-73
2023/12/27 12:17:03;;;;;;;0.90;0.65;;;;;;;;;;4952118;28;20076;-73
2023/12/27 12:19:32;;;;;;;0.10;0.10;;;;;;;;;;4919986;28;20666;-73
2023/12/27 12:22:01;;;;;;;0.20;0.20;;;;;;;;;;4971008;28;20128;-73
2023/12/27 12:24:29;;;;;;;0.30;0.30;;;;;;;;;;4969451;28;20081;-73
2023/12/27 12:26:57;;;;;;;0.50;0.50;;;;;;;;;;5005123;28;20108;-73
2023/12/27 12:29:25;;;;;;;7.28;0.98;;;;;;;;;;4999828;28;20250;-73
2023/12/27 12:31:55;;;;;;;0.10;0.10;;;;;;;;;;4946764;28;20515;-70
2023/12/27 12:34:23;;;;;;;0.20;0.20;;;;;;;;;;4996593;28;20042;-72
2023/12/27 12:36:52;;;;;;;0.10;0.10;;;;;;;;;;5000243;28;20061;-72
2023/12/27 12:39:20;;;;;;;0.20;0.20;;;;;;;;;;4999108;28;20050;-72
2023/12/27 12:41:48;;;;;;;0.25;0.25;;;;;;;;;;4979435;28;20100;-73
2023/12/27 12:44:17;;;;;;;0.55;0.55;;;;;;;;;;4977311;28;20389;-73
2023/12/27 12:46:44;;;;;;;0.10;0.10;;;;;;;;;;4997744;28;20556;-73
2023/12/27 12:49:13;;;;;;;4.30;0.80;;;;;;;;;;5001610;28;20128;-73
2023/12/27 12:51:41;;;;;;;0.20;0.20;;;;;;;;;;5000073;28;20061;-72
2023/12/27 12:54:08;;;;;;;0.20;0.20;;;;;;;;;;4997335;28;20520;-72
2023/12/27 12:56:39;;;;;;;0.10;0.10;;;;;;;;;;5002016;28;20068;-73
2023/12/27 12:59:07;;;;;;;0.10;0.10;;;;;;;;;;4970877;28;20158;-73
2023/12/27 13:01:35;;;;;;;0.10;0.10;;;;;;;;;;4968910;28;20068;-72
2023/12/27 13:04:05;;;;;;;0.10;0.10;;;;;;;;;;4996873;28;20201;-71
2023/12/27 13:06:33;;;;;;;0.30;0.30;;;;;;;;;;4994895;28;20562;-73
2023/12/27 13:09:04;;;;;;;0.10;0.10;;;;;;;;;;4995065;28;20043;-73
2023/12/27 13:11:34;;;;;;;0.10;0.10;;;;;;;;;;5000493;28;20304;-71
2023/12/27 13:14:02;;;;;;;0.20;0.20;;;;;;;;;;4998616;28;20431;-73
2023/12/27 13:16:29;;;;;;;0.20;0.20;;;;;;;;;;4991791;28;20045;-73
2023/12/27 13:18:59;;;;;;;0.63;0.63;;;;;;;;;;4981758;28;20132;-71
2023/12/27 13:21:29;;;;;;;0.17;0.17;;;;;;;;;;4949778;28;20061;-73
2023/12/27 13:23:56;;;;;;;0.10;0.10;;;;;;;;;;4963472;28;20057;-73
2023/12/27 13:26:24;;;;;;;0.10;0.10;;;;;;;;;;4975380;28;20049;-73
2023/12/27 13:28:52;;;;;;;0.10;0.10;;;;;;;;;;5337655;22;20482;-73
2023/12/27 13:31:19;;;;;;;0.20;0.20;;;;;;;;;;5030446;28;20049;-73
2023/12/27 13:33:47;;;;;;;0.80;0.80;;;;;;;;;;5016522;28;20061;-73
2023/12/27 13:36:15;;;;;;;0.50;0.50;;;;;;;;;;5029788;28;20041;-73
2023/12/27 13:38:43;;;;;;;0.10;0.10;;;;;;;;;;5019631;28;20049;-74
2023/12/27 13:41:11;;;;;;;0.22;0.22;;;;;;;;;;5023465;28;20041;-74
2023/12/27 13:43:39;;;;;;;0.20;0.20;;;;;;;;;;5001242;28;20045;-74
2023/12/27 13:46:07;;;;;;;0.40;0.40;;;;;;;;;;5029159;28;20048;-74
2023/12/27 13:48:35;;;;;;;0.30;0.30;;;;;;;;;;5023925;28;20050;-74
2023/12/27 13:51:03;;;;;;;0.47;0.47;;;;;;;;;;5023326;28;20050;-73
2023/12/27 13:53:31;;;;;;;3.88;2.55;;;;;;;;;;5027390;28;20053;-74
2023/12/27 13:55:58;;;;;;;1.17;1.08;;;;;;;;;;5027074;28;20233;-73
2023/12/27 13:58:28;;;;;;;0.38;0.38;;;;;;;;;;5028326;28;20546;-73
2023/12/27 14:00:56;;;;;;;0.25;0.25;;;;;;;;;;4995922;28;20058;-73
2023/12/27 14:03:24;;;;;;;0.13;0.13;;;;;;;;;;5017947;28;20333;-74
2023/12/27 14:05:51;;;;;;;0.30;0.30;;;;;;;;;;5016811;28;20359;-74
2023/12/27 14:08:20;;;;;;;0.10;0.10;;;;;;;;;;5031319;28;20058;-75
2023/12/27 14:10:47;;;;;;;0.20;0.20;;;;;;;;;;5032192;28;20049;-74
2023/12/27 14:13:15;;;;;;;0.20;0.20;;;;;;;;;;5011492;28;20049;-74
2023/12/27 14:15:43;;;;;;;0.20;0.20;;;;;;;;;;5033844;28;20134;-73
2023/12/27 14:18:11;;;;;;;0.30;0.30;;;;;;;;;;5031503;28;20049;-74
2023/12/27 14:20:42;;;;;;;0.25;0.25;;;;;;;;;;5033895;28;20132;-73
2023/12/27 14:23:10;;;;;;;0.28;0.28;;;;;;;;;;5031781;28;20056;-73
2023/12/27 14:25:38;;;;;;;0.10;0.10;;;;;;;;;;5025568;28;20495;-74
2023/12/27 14:28:06;;;;;;;0.10;0.10;;;;;;;;;;5030924;28;20042;-73
2023/12/27 14:30:35;;;;;;;0.50;0.50;;;;;;;;;;5028264;28;20140;-74
2023/12/27 14:33:03;;;;;;;0.10;0.10;;;;;;;;;;5020474;28;20596;-73
2023/12/27 14:35:32;;;;;;;0.20;0.20;;;;;;;;;;5022396;28;20061;-73
2023/12/27 14:37:59;;;;;;;1.25;0.55;;;;;;;;;;5021853;28;20634;-73
2023/12/27 14:40:29;;;;;;;0.20;0.20;;;;;;;;;;5030126;28;20141;-73
2023/12/27 14:42:58;;;;;;;2.72;1.30;;;;;;;;;;5017999;28;20045;-73
2023/12/27 14:45:26;;;;;;;0.10;0.10;;;;;;;;;;5022622;28;20056;-73
2023/12/27 14:47:54;;;;;;;1.48;0.65;;;;;;;;;;5026715;28;20045;-73
2023/12/27 14:50:22;;;;;;;3.65;1.02;;;;;;;;;;5026197;28;20044;-73